Time;durP1;ratioP1;P1;durP2;ratioP2;P2;SDS_P1;SDS_P2;PMS_P1;PMS_P2;Temp;Humidity;BMP_temperature;BMP_pressure;BME280_temperature;BME280_humidity;BME280_pressure;Samples;Min_cycle;Max_cycle;Signal;HPM_P1;HPM_P2
2022/08/19 00:02:01;;;;;;;46.27;4.13;;;;;;;23.93;64.12;99630.56;5131174;28;20043;-64
2022/08/19 00:05:32;;;;;;;11.23;2.13;;;;;;;24.06;64.16;99625.91;5131139;28;20104;-65
2022/08/19 00:09:05;;;;;;;2.93;1.60;;;;;;;24.14;63.58;99629.75;5098961;28;20320;-62
2022/08/19 00:12:34;;;;;;;6.80;1.60;;;;;;;24.15;63.19;99623.44;5132187;27;20073;-63
2022/08/19 00:16:10;;;;;;;28.20;2.73;;;;;;;24.19;62.30;99614.19;5124695;27;20270;-63
2022/08/19 00:19:23;;;;;;;13.47;1.63;;;;;;;24.20;62.79;99594.56;5129767;28;20074;-65
2022/08/19 00:22:13;;;;;;;5.90;1.63;;;;;;;24.20;61.68;99583.88;5131176;28;20383;-66
2022/08/19 00:25:03;;;;;;;12.37;1.40;;;;;;;24.26;62.53;99588.69;5131682;28;20070;-64
2022/08/19 00:28:11;;;;;;;7.47;1.50;;;;;;;24.33;61.96;99574.69;5132275;28;20056;-64
2022/08/19 00:31:08;;;;;;;10.90;1.40;;;;;;;24.37;60.66;99553.94;5097758;27;20055;-64
2022/08/19 00:34:11;;;;;;;10.43;1.40;;;;;;;24.38;61.60;99544.09;5129511;28;20043;-66
2022/08/19 00:37:26;;;;;;;6.20;1.50;;;;;;;24.46;60.43;99542.50;5131911;27;20061;-66
2022/08/19 00:40:57;;;;;;;;;;;;;;;;;;;;;
2022/08/19 00:44:30;;;;;;;22.43;2.77;;;;;;;24.60;60.12;99521.75;5077218;27;20080;-65
2022/08/19 00:47:49;;;;;;;5.57;1.50;;;;;;;24.79;59.09;99535.22;5117094;27;20051;-64
2022/08/19 00:50:47;;;;;;;33.07;2.70;;;;;;;24.79;59.78;99537.88;5087002;27;20079;-64
2022/08/19 00:54:00;;;;;;;5.90;1.00;;;;;;;24.75;59.02;99510.56;5134525;27;20036;-65
2022/08/19 00:57:13;;;;;;;9.97;1.03;;;;;;;24.89;58.29;99522.75;5133493;27;20058;-67
2022/08/19 01:00:09;;;;;;;5.13;1.40;;;;;;;24.91;58.93;99526.13;5132943;27;20051;-67
2022/08/19 01:03:27;;;;;;;18.13;1.53;;;;;;;25.04;58.37;99535.75;5083430;27;20059;-64
2022/08/19 01:06:59;;;;;;;26.03;3.13;;;;;;;24.93;58.15;99524.13;5120605;27;20078;-65
2022/08/19 01:10:39;;;;;;;11.07;1.33;;;;;;;25.03;58.40;99523.34;5089483;28;20066;-66
2022/08/19 01:13:41;;;;;;;7.67;1.20;;;;;;;25.09;57.88;99534.34;4942551;29;20269;-64
2022/08/19 01:17:23;;;;;;;30.50;2.53;;;;;;;25.14;57.38;99525.94;4892469;29;20057;-65
2022/08/19 01:20:14;;;;;;;;;;;;;;;25.14;56.57;99532.09;4944012;29;20079;-64
2022/08/19 01:27:10;;;;;;;5.97;1.23;;;;;;;25.19;56.99;99529.06;4941462;29;20055;-64
2022/08/19 01:31:02;;;;;;;24.13;1.90;;;;;;;25.32;56.16;99518.13;5191275;27;20400;-64
2022/08/19 01:34:46;;;;;;;30.73;2.03;;;;;;;25.24;55.55;99521.47;5102094;27;20256;-65
2022/08/19 01:38:32;;;;;;;106.80;7.80;;;;;;;25.25;56.28;99495.56;5074530;28;20044;-66
2022/08/19 01:41:54;;;;;;;34.00;2.60;;;;;;;25.10;56.08;99460.34;5088545;28;20072;-65
2022/08/19 01:45:14;;;;;;;5.60;1.30;;;;;;;25.42;55.61;99480.69;5089438;28;20159;-65
2022/08/19 01:48:10;;;;;;;14.20;1.40;;;;;;;25.22;55.43;99437.88;5094658;28;20051;-63
2022/08/19 01:51:11;;;;;;;11.30;1.35;;;;;;;25.43;54.74;99466.31;5069721;28;20245;-64
2022/08/19 01:53:55;;;;;;;23.87;2.37;;;;;;;25.42;55.41;99464.66;5094686;28;20447;-66
2022/08/19 01:56:39;;;;;;;5.67;0.80;;;;;;;25.51;54.75;99463.78;5095740;28;20049;-64
2022/08/19 01:59:36;;;;;;;11.57;1.07;;;;;;;25.49;54.89;99457.75;5093565;28;20325;-69
2022/08/19 02:02:26;;;;;;;14.13;1.40;;;;;;;25.47;54.44;99462.41;5095349;28;20052;-65
2022/08/19 02:05:13;;;;;;;4.17;1.03;;;;;;;25.34;54.64;99458.16;5096004;28;20052;-67
2022/08/19 02:07:56;;;;;;;7.55;1.55;;;;;;;25.29;55.06;99449.72;5064018;28;20094;-66
2022/08/19 02:10:43;;;;;;;10.53;1.43;;;;;;;25.21;55.62;99452.25;5095159;28;20051;-65
2022/08/19 02:13:24;;;;;;;16.47;1.30;;;;;;;25.27;56.10;99446.34;5095674;28;20110;-65
2022/08/19 02:16:01;;;;;;;11.37;1.40;;;;;;;25.32;55.29;99454.78;5077004;28;20119;-67
2022/08/19 02:18:56;;;;;;;45.47;3.97;;;;;;;25.19;55.48;99416.78;5094371;28;20077;-66
2022/08/19 02:21:33;;;;;;;9.43;1.00;;;;;;;25.33;54.87;99437.75;5094844;28;20127;-67
2022/08/19 02:24:20;;;;;;;10.57;1.20;;;;;;;25.05;55.27;99393.09;5095475;28;20044;-64
2022/08/19 02:27:04;;;;;;;6.10;0.80;;;;;;;25.23;55.61;99434.22;5128308;27;20106;-67
2022/08/19 02:30:00;;;;;;;24.33;2.40;;;;;;;25.12;55.54;99442.34;5168821;27;20320;-66
2022/08/19 02:32:57;;;;;;;16.20;1.93;;;;;;;25.08;56.39;99446.25;5169065;27;20050;-64
2022/08/19 02:35:49;;;;;;;10.17;0.90;;;;;;;25.05;56.58;99427.84;5123104;27;20053;-65
2022/08/19 02:38:47;;;;;;;32.30;2.77;;;;;;;25.30;56.14;99440.69;5166243;27;20062;-64
2022/08/19 02:42:07;;;;;;;7.50;1.20;;;;;;;25.29;56.14;99439.03;5070324;28;20060;-65
2022/08/19 02:49:28;;;;;;;20.10;1.73;;;;;;;25.21;56.06;99430.84;5069877;28;20049;-65
2022/08/19 03:00:11;;;;;;;39.33;3.67;;;;;;;25.51;56.00;99453.09;5048516;28;20045;-66
2022/08/19 03:03:24;;;;;;;7.57;1.27;;;;;;;25.25;55.59;99448.28;5067122;28;20056;-64
2022/08/19 03:06:38;;;;;;;9.83;1.10;;;;;;;25.14;55.32;99443.06;5069645;28;20064;-64
2022/08/19 03:09:47;;;;;;;24.83;2.20;;;;;;;25.04;56.15;99428.84;5070842;28;20074;-64
2022/08/19 03:12:50;;;;;;;17.03;1.20;;;;;;;25.16;55.15;99443.75;5070349;28;20056;-65
2022/08/19 03:16:02;;;;;;;9.50;1.23;;;;;;;24.79;55.75;99382.94;5039485;28;20049;-63
2022/08/19 03:19:04;;;;;;;40.40;2.30;;;;;;;25.06;55.61;99432.19;5027358;28;20099;-65
2022/08/19 03:22:04;;;;;;;11.03;1.27;;;;;;;25.09;56.18;99432.78;5068902;28;20342;-65
2022/08/19 03:28:50;;;;;;;12.47;1.30;;;;;;;25.31;55.54;99447.75;5056343;28;20100;-67
2022/08/19 03:32:04;;;;;;;51.83;4.90;;;;;;;25.33;54.91;99443.09;5069325;28;20044;-66
2022/08/19 03:35:15;;;;;;;19.17;1.30;;;;;;;25.27;54.96;99445.50;5025965;28;20122;-66
2022/08/19 03:38:30;;;;;;;11.67;1.00;;;;;;;25.02;54.82;99425.44;5037942;28;20061;-67
2022/08/19 03:41:56;;;;;;;12.80;1.30;;;;;;;25.09;55.31;99447.97;5070017;28;20052;-65
2022/08/19 03:45:04;;;;;;;12.70;1.83;;;;;;;24.96;55.22;99449.06;5069304;28;20044;-65
2022/08/19 03:51:30;;;;;;;9.27;1.10;;;;;;;25.10;55.00;99436.28;5067389;28;20087;-65
2022/08/19 03:54:43;;;;;;;1.98;0.60;;;;;;;25.36;54.80;99450.84;5067899;28;20052;-66
2022/08/19 03:58:27;;;;;;;9.60;0.83;;;;;;;25.50;53.84;99456.75;5069702;27;20058;-65
2022/08/19 04:02:02;;;;;;;19.97;1.43;;;;;;;25.66;53.10;99461.53;5111287;28;20052;-64
2022/08/19 04:05:31;;;;;;;5.77;0.80;;;;;;;25.60;52.10;99457.59;5028980;28;20061;-64
2022/08/19 04:08:25;;;;;;;109.27;6.77;;;;;;;25.47;53.46;99446.34;5023022;28;20326;-63
2022/08/19 04:11:41;;;;;;;6.43;0.90;;;;;;;25.26;53.83;99422.41;5028210;28;20063;-63
2022/08/19 04:15:17;;;;;;;4.03;0.67;;;;;;;25.24;54.95;99427.91;5025977;28;20085;-64
2022/08/19 04:18:47;;;;;;;10.30;1.20;;;;;;;25.35;53.34;99443.78;4989907;28;20316;-64
2022/08/19 04:22:18;;;;;;;4.90;0.77;;;;;;;25.08;54.35;99435.56;4974447;28;20058;-63
2022/08/19 04:25:30;;;;;;;45.17;3.43;;;;;;;25.02;54.45;99441.47;4918500;29;20052;-64
2022/08/19 04:28:34;;;;;;;7.03;0.50;;;;;;;24.92;53.79;99414.75;4922571;29;20044;-65
2022/08/19 04:31:53;;;;;;;19.87;2.90;;;;;;;25.25;54.13;99445.63;4922638;29;20063;-64
2022/08/19 04:35:34;;;;;;;21.13;2.03;;;;;;;25.32;52.91;99444.09;4922516;29;20309;-65
2022/08/19 04:39:07;;;;;;;11.17;1.20;;;;;;;25.19;53.04;99432.81;4921454;29;20079;-64
2022/08/19 04:49:25;;;;;;;8.73;0.97;;;;;;;24.38;54.44;99430.13;4977976;28;20375;-64
2022/08/19 04:52:57;;;;;;;19.90;1.90;;;;;;;24.43;55.73;99435.06;4998225;28;20113;-64
2022/08/19 04:56:22;;;;;;;9.87;1.20;;;;;;;24.71;54.19;99428.16;4998058;28;20045;-64
2022/08/19 05:00:04;;;;;;;8.03;1.10;;;;;;;24.64;53.16;99425.22;4995256;28;20349;-64
2022/08/19 05:03:05;;;;;;;7.13;0.80;;;;;;;24.54;54.29;99406.47;4993052;28;20198;-65
2022/08/19 05:06:36;;;;;;;24.13;1.73;;;;;;;24.79;54.16;99430.16;5002658;28;20113;-64
2022/08/19 05:13:17;;;;;;;46.27;3.60;;;;;;;24.99;54.03;99410.53;5026874;28;20041;-65
2022/08/19 05:16:40;;;;;;;5.70;0.83;;;;;;;24.85;52.94;99414.44;4967500;28;20067;-64
2022/08/19 05:31:03;;;;;;;33.73;2.27;;;;;;;24.49;54.20;99392.69;4819630;29;20105;-65
2022/08/19 05:34:08;;;;;;;21.93;2.30;;;;;;;24.29;54.72;99390.91;4850771;29;20065;-64
2022/08/19 05:37:26;;;;;;;9.10;1.30;;;;;;;23.97;55.08;99381.19;4832815;29;20053;-64
2022/08/19 05:40:24;;;;;;;14.97;1.63;;;;;;;23.89;55.41;99389.00;4860630;29;20113;-65
2022/08/19 05:43:37;;;;;;;40.97;2.53;;;;;;;23.58;56.11;99375.56;4864966;29;20049;-65
2022/08/19 05:50:14;;;;;;;14.80;2.67;;;;;;;23.67;56.34;99379.28;4865403;29;20064;-63
2022/08/19 05:53:33;;;;;;;10.30;2.60;;;;;;;23.72;56.71;99392.25;4880346;29;20302;-64
2022/08/19 05:56:27;;;;;;;21.13;2.30;;;;;;;23.61;57.22;99358.47;4908197;28;20056;-64
2022/08/19 05:59:21;;;;;;;11.57;1.80;;;;;;;23.55;57.18;99348.31;4984976;28;20224;-65
2022/08/19 06:02:51;;;;;;;11.57;1.23;;;;;;;23.72;57.35;99381.56;5021038;28;20065;-64
2022/08/19 06:06:25;;;;;;;12.53;1.10;;;;;;;23.64;57.37;99380.41;5028451;28;20054;-66
2022/08/19 06:09:38;;;;;;;15.50;1.27;;;;;;;23.48;57.18;99364.00;4957329;29;20387;-66
2022/08/19 06:20:20;;;;;;;9.27;1.30;;;;;;;23.68;58.33;99355.13;4943161;29;20063;-64
2022/08/19 06:26:54;;;;;;;4.57;1.00;;;;;;;23.38;58.02;99357.75;4962901;29;20055;-65
2022/08/19 06:29:48;;;;;;;5.18;1.13;;;;;;;23.19;58.82;99359.28;4950913;29;20063;-65
2022/08/19 06:35:29;;;;;;;114.77;6.63;;;;;;;22.95;59.77;99361.28;4960299;29;20055;-64
2022/08/19 06:38:06;;;;;;;68.13;5.13;;;;;;;22.81;59.79;99365.94;4986636;28;20327;-65
2022/08/19 06:41:07;;;;;;;10.73;1.30;;;;;;;22.74;60.42;99351.44;5010869;28;20080;-65
2022/08/19 06:44:12;;;;;;;5.93;1.30;;;;;;;22.69;61.11;99350.97;4998461;28;20064;-63
2022/08/19 06:46:58;;;;;;;31.57;2.27;;;;;;;22.75;60.97;99350.44;5009003;28;20267;-64
2022/08/19 06:52:40;;;;;;;7.47;1.10;;;;;;;22.68;60.84;99354.56;5039014;28;20037;-65
2022/08/19 06:55:19;;;;;;;6.53;1.20;;;;;;;22.55;60.47;99364.53;5071040;28;20078;-67
2022/08/19 06:58:05;;;;;;;31.30;2.00;;;;;;;22.30;61.28;99363.81;5070243;28;20090;-64
2022/08/19 07:00:51;;;;;;;26.77;2.60;;;;;;;22.25;62.47;99366.00;5039157;28;20045;-65
2022/08/19 07:03:30;;;;;;;11.65;1.48;;;;;;;22.13;62.54;99374.91;5067576;28;20118;-63
2022/08/19 07:06:09;;;;;;;19.53;2.03;;;;;;;22.03;62.49;99373.94;5070266;28;20144;-64
2022/08/19 07:09:08;;;;;;;9.50;1.70;;;;;;;21.88;62.54;99366.19;5069182;28;20068;-64
2022/08/19 07:11:53;;;;;;;4.30;1.57;;;;;;;21.82;62.92;99381.78;5078624;27;20191;-64
2022/08/19 07:14:32;;;;;;;10.30;1.30;;;;;;;21.79;63.04;99385.53;5154301;27;20098;-63
2022/08/19 07:17:18;;;;;;;6.93;1.40;;;;;;;21.68;63.22;99396.97;5153386;27;20051;-63
2022/08/19 07:20:02;;;;;;;3.40;1.10;;;;;;;21.64;63.60;99394.66;5149284;27;20530;-64
2022/08/19 07:23:09;;;;;;;24.97;1.80;;;;;;;21.61;63.46;99390.41;5153894;27;20432;-64
2022/08/19 07:26:02;;;;;;;11.83;1.20;;;;;;;21.56;63.98;99386.44;5153814;27;20038;-65
2022/08/19 07:28:46;;;;;;;11.23;1.23;;;;;;;21.56;64.33;99386.44;5153957;27;20118;-65
2022/08/19 07:31:47;;;;;;;106.70;5.83;;;;;;;21.40;64.57;99361.00;5153467;27;20134;-64
2022/08/19 07:34:36;;;;;;;50.27;3.60;;;;;;;21.50;65.38;99383.28;5154193;27;20046;-64
2022/08/19 07:37:16;;;;;;;;;;;;;;;21.49;65.71;99370.97;5154004;27;20277;-65
2022/08/19 07:40:17;;;;;;;12.82;1.40;;;;;;;21.36;65.76;99366.63;5154740;27;19922;-64
2022/08/19 07:43:01;;;;;;;10.53;1.50;;;;;;;21.28;66.19;99367.22;5154442;27;20089;-64
2022/08/19 07:45:43;;;;;;;29.80;2.87;;;;;;;21.29;66.95;99384.84;5154372;27;20306;-65
2022/08/19 07:48:31;;;;;;;19.43;1.93;;;;;;;21.23;67.20;99387.97;5115745;27;20285;-65
2022/08/19 07:51:29;;;;;;;39.17;4.27;;;;;;;21.20;67.46;99396.19;5153562;27;20312;-64
2022/08/19 07:54:11;;;;;;;50.17;3.23;;;;;;;21.06;67.48;99384.75;5153599;27;20309;-64
2022/08/19 07:57:02;;;;;;;10.30;3.13;;;;;;;21.10;67.72;99402.16;5152800;27;20288;-64
2022/08/19 08:00:22;;;;;;;85.85;6.85;;;;;;;21.31;68.00;99394.41;5153008;27;20296;-65
2022/08/19 08:09:10;;;;;;;10.40;2.07;;;;;;;21.18;68.16;99355.59;5153071;27;20065;-64
2022/08/19 08:09:37;;;;;;;11.10;2.87;;;;;;;21.15;68.82;99383.22;5115372;27;20069;-64
2022/08/19 08:12:43;;;;;;;7.60;2.20;;;;;;;21.06;69.54;99379.44;5153335;27;20336;-64
2022/08/19 08:15:44;;;;;;;8.73;2.90;;;;;;;20.86;70.39;99361.47;5154277;27;20631;-64
2022/08/19 08:18:23;;;;;;;13.23;3.20;;;;;;;20.37;70.86;99310.13;5152855;27;20345;-65
2022/08/19 08:21:09;;;;;;;41.60;5.40;;;;;;;20.63;71.54;99371.97;5154168;27;20288;-64
2022/08/19 08:23:51;;;;;;;5.13;1.97;;;;;;;20.60;71.53;99382.81;5152283;27;20295;-64
2022/08/19 08:26:38;;;;;;;10.73;2.70;;;;;;;20.52;72.03;99371.88;5153245;27;20288;-63
2022/08/19 08:29:27;;;;;;;9.03;1.90;;;;;;;20.42;72.35;99368.19;5151823;27;20363;-65
2022/08/19 08:35:22;;;;;;;15.70;2.77;;;;;;;20.26;73.43;99373.69;5131242;27;20046;-65
2022/08/19 08:38:08;;;;;;;19.37;2.60;;;;;;;20.07;73.86;99347.66;5150776;27;20297;-63
2022/08/19 08:41:16;;;;;;;17.57;2.40;;;;;;;20.17;74.23;99369.91;5150594;27;20292;-65
2022/08/19 08:44:28;;;;;;;60.93;4.67;;;;;;;20.08;74.42;99365.25;5151344;27;20322;-64
2022/08/19 08:47:34;;;;;;;10.53;2.00;;;;;;;20.01;74.66;99358.66;5112337;27;20565;-65
2022/08/19 08:56:48;;;;;;;14.33;2.80;;;;;;;19.99;75.30;99360.56;5150779;27;20322;-65
2022/08/19 08:59:50;;;;;;;3.43;1.60;;;;;;;19.91;75.39;99347.00;5152041;27;20303;-65
2022/08/19 09:02:49;;;;;;;9.67;1.50;;;;;;;19.80;75.84;99340.66;5151222;27;20605;-64
2022/08/19 09:06:01;;;;;;;10.23;1.90;;;;;;;19.82;76.20;99338.75;5106098;27;20461;-63
2022/08/19 09:08:52;;;;;;;60.00;4.10;;;;;;;19.87;75.61;99340.22;5149939;27;20296;-64
2022/08/19 09:11:48;;;;;;;47.17;4.43;;;;;;;19.88;75.73;99336.63;5152398;27;20329;-65
2022/08/19 09:14:49;;;;;;;8.90;2.10;;;;;;;19.79;75.82;99338.97;5117973;27;20302;-64
2022/08/19 09:17:45;;;;;;;9.00;1.90;;;;;;;19.76;75.55;99338.31;5146731;27;20292;-65
2022/08/19 09:20:25;;;;;;;5.43;1.50;;;;;;;19.66;75.32;99342.53;5099084;27;20280;-64
2022/08/19 09:23:05;;;;;;;26.03;2.10;;;;;;;19.59;75.09;99360.63;5105975;27;20299;-64
2022/08/19 09:26:00;;;;;;;17.67;2.30;;;;;;;19.57;75.46;99365.22;5151891;27;20268;-64
2022/08/19 09:28:45;;;;;;;15.77;2.17;;;;;;;19.53;75.53;99369.00;5152586;27;20299;-64
2022/08/19 09:31:23;;;;;;;13.15;1.95;;;;;;;19.46;75.57;99367.72;5151345;27;20292;-65
2022/08/19 09:34:09;;;;;;;58.57;5.47;;;;;;;19.44;75.62;99369.63;5151546;27;20078;-64
2022/08/19 09:36:52;;;;;;;9.10;1.80;;;;;;;19.43;75.75;99367.94;5150904;27;20272;-65
2022/08/19 09:39:45;;;;;;;8.13;2.15;;;;;;;19.43;75.71;99365.28;5151191;27;20793;-64
2022/08/19 09:42:25;;;;;;;5.57;1.57;;;;;;;19.42;75.82;99371.53;5152265;27;20209;-64
2022/08/19 09:45:35;;;;;;;36.17;4.03;;;;;;;19.35;76.09;99361.34;5152378;27;20348;-64
2022/08/19 09:48:48;;;;;;;;;;;;;;;;;;;;;
2022/08/19 09:54:46;;;;;;;17.10;2.10;;;;;;;19.26;76.99;99350.53;5155579;27;20289;-64
2022/08/19 09:57:29;;;;;;;84.37;6.70;;;;;;;19.22;76.83;99355.19;5156168;27;20277;-63
2022/08/19 10:00:22;;;;;;;35.53;3.07;;;;;;;19.05;77.32;99363.41;5154970;27;20268;-64
2022/08/19 10:03:17;;;;;;;151.00;8.90;;;;;;;19.11;77.86;99368.28;5155622;27;20300;-64
2022/08/19 10:06:09;;;;;;;9.80;2.63;;;;;;;19.04;77.76;99361.69;5155493;27;20288;-64
2022/08/19 10:13:26;;;;;;;32.77;3.07;;;;;;;19.11;78.09;99389.47;5054258;28;20349;-64
2022/08/19 10:20:11;;;;;;;28.80;3.17;;;;;;;18.95;78.58;99390.47;5049320;28;20311;-64
2022/08/19 10:22:59;;;;;;;17.17;2.72;;;;;;;19.02;78.86;99390.03;5055444;28;20291;-64
2022/08/19 10:25:46;;;;;;;15.83;2.67;;;;;;;19.00;78.92;99386.69;5067781;28;20997;-64
2022/08/19 10:43:47;;;;;;;17.13;2.60;;;;;;;18.71;80.05;99354.97;4992291;28;20068;-64
2022/08/19 10:53:04;;;;;;;11.20;2.87;;;;;;;18.74;80.30;99382.06;4992059;28;20321;-65
2022/08/19 10:59:32;;;;;;;8.10;3.13;;;;;;;18.40;80.66;99330.47;4975524;28;20598;-64
2022/08/19 11:02:11;;;;;;;13.60;3.07;;;;;;;18.64;80.61;99358.94;4991553;28;20575;-65
2022/08/19 11:04:57;;;;;;;12.03;3.03;;;;;;;18.71;80.84;99376.13;4992884;28;20456;-64
2022/08/19 11:07:51;;;;;;;8.40;3.17;;;;;;;18.68;81.28;99365.75;4988902;28;20420;-64
2022/08/19 11:13:36;;;;;;;11.17;2.90;;;;;;;18.52;81.76;99361.44;5066384;28;20584;-64
2022/08/19 11:19:07;;;;;;;11.63;3.27;;;;;;;18.45;82.02;99381.28;5068421;28;20313;-65
2022/08/19 11:30:52;;;;;;;15.43;3.60;;;;;;;18.17;83.64;99382.16;5081387;28;20325;-66
2022/08/19 11:33:29;;;;;;;8.90;3.43;;;;;;;18.17;84.14;99376.00;5088353;28;20293;-63
2022/08/19 11:36:24;;;;;;;11.23;3.20;;;;;;;18.19;84.41;99374.97;5090831;28;20385;-64
2022/08/19 11:38:59;;;;;;;9.97;3.43;;;;;;;18.23;84.58;99370.34;5041135;28;20370;-65
2022/08/19 11:41:44;;;;;;;15.83;4.20;;;;;;;18.19;84.38;99350.31;5090269;28;20692;-64
2022/08/19 11:44:36;;;;;;;15.23;3.93;;;;;;;18.28;84.03;99357.69;5091136;28;20275;-64
2022/08/19 11:47:11;;;;;;;10.77;3.60;;;;;;;18.29;84.65;99359.38;5090138;28;20293;-65
2022/08/19 11:49:57;;;;;;;10.57;3.53;;;;;;;18.27;84.43;99355.97;5090882;28;20364;-66
2022/08/19 11:52:34;;;;;;;7.60;3.33;;;;;;;18.26;84.28;99360.41;5088424;28;20282;-65
2022/08/19 11:55:20;;;;;;;14.00;3.90;;;;;;;18.20;84.50;99359.97;5089744;28;20679;-65
2022/08/19 12:02:24;;;;;;;10.93;3.97;;;;;;;18.13;85.01;99359.50;4981291;28;20378;-64
2022/08/19 12:06:00;;;;;;;12.27;4.50;;;;;;;18.05;85.28;99354.69;5000051;28;20293;-65
2022/08/19 12:08:58;;;;;;;9.80;4.10;;;;;;;17.85;85.74;99318.91;5000524;28;20317;-65
2022/08/19 12:11:45;;;;;;;9.50;4.07;;;;;;;18.05;85.90;99346.75;5000292;28;20433;-65
2022/08/19 12:14:36;;;;;;;10.67;3.73;;;;;;;18.09;86.01;99342.97;4969180;28;20348;-65
2022/08/19 12:20:20;;;;;;;18.73;3.77;;;;;;;18.11;85.96;99330.50;4992834;28;20364;-65
2022/08/19 12:23:09;;;;;;;10.90;3.70;;;;;;;18.09;86.20;99321.81;5033038;28;20284;-65
2022/08/19 12:25:56;;;;;;;8.73;3.67;;;;;;;18.13;86.05;99326.94;5042508;28;20320;-64
2022/08/19 12:28:40;;;;;;;13.40;4.93;;;;;;;18.17;86.20;99339.00;5013306;28;20369;-65
2022/08/19 12:31:36;;;;;;;11.73;3.37;;;;;;;18.14;86.45;99328.63;5050185;28;20367;-65
2022/08/19 12:34:15;;;;;;;10.50;3.83;;;;;;;18.17;86.33;99328.41;5104475;28;20329;-66
2022/08/19 12:37:16;;;;;;;14.20;4.10;;;;;;;18.13;86.23;99319.00;5088378;28;20296;-66
2022/08/19 12:39:59;;;;;;;20.07;4.33;;;;;;;18.14;86.33;99318.03;5071219;28;20302;-66
2022/08/19 12:42:49;;;;;;;9.33;3.10;;;;;;;18.09;86.40;99305.94;5104576;28;20601;-65
2022/08/19 12:45:40;;;;;;;18.80;4.33;;;;;;;18.05;86.63;99304.47;5071627;28;20294;-65
2022/08/19 12:48:30;;;;;;;17.35;4.13;;;;;;;18.05;86.69;99307.09;5078409;28;20364;-66
2022/08/19 12:51:15;;;;;;;17.00;4.77;;;;;;;18.00;86.60;99303.06;5104220;28;20141;-66
2022/08/19 12:54:01;;;;;;;11.93;4.22;;;;;;;17.71;86.89;99257.25;5086153;28;20324;-66
2022/08/19 12:56:39;;;;;;;9.17;3.67;;;;;;;17.97;86.92;99295.28;5103666;28;20446;-63
2022/08/19 12:59:26;;;;;;;8.73;3.92;;;;;;;17.95;87.12;99298.06;5104149;28;20274;-64
2022/08/19 13:02:31;;;;;;;14.37;4.17;;;;;;;17.91;87.35;99296.53;5103888;28;20055;-64
2022/08/19 13:05:13;;;;;;;9.73;3.70;;;;;;;17.84;87.13;99297.84;5102016;28;20290;-63
2022/08/19 13:07:59;;;;;;;9.20;4.10;;;;;;;17.57;87.22;99245.75;5104241;28;20349;-64
2022/08/19 13:10:40;;;;;;;9.23;4.37;;;;;;;17.73;87.25;99263.31;5104069;28;20474;-64
2022/08/19 13:13:17;;;;;;;13.73;3.97;;;;;;;17.84;87.21;99287.28;5103280;28;20329;-64
2022/08/19 13:16:19;;;;;;;14.57;3.93;;;;;;;17.78;87.39;99282.34;5103819;28;20504;-64
2022/08/19 13:19:32;;;;;;;;;;;;;;;;;;;;;
2022/08/19 13:22:54;;;;;;;6.83;3.70;;;;;;;17.71;87.73;99278.38;5102172;28;20274;-64
2022/08/19 13:25:36;;;;;;;15.73;4.50;;;;;;;17.68;87.74;99275.00;5104100;28;20290;-64
2022/08/19 13:28:16;;;;;;;8.63;3.50;;;;;;;17.66;87.90;99274.22;5103031;28;20579;-64
2022/08/19 13:34:08;;;;;;;15.50;3.97;;;;;;;17.56;88.21;99259.88;5121308;28;20333;-64
2022/08/19 13:36:44;;;;;;;7.73;3.67;;;;;;;17.55;88.18;99252.91;5123887;28;20306;-65
2022/08/19 13:39:35;;;;;;;10.73;3.70;;;;;;;17.53;88.28;99246.88;5123990;28;20288;-66
2022/08/19 13:42:08;;;;;;;25.57;4.40;;;;;;;17.48;88.71;99235.75;5124296;28;20338;-65
2022/08/19 13:44:48;;;;;;;55.58;5.43;;;;;;;17.49;88.91;99221.59;5071652;28;20574;-64
2022/08/19 13:50:40;;;;;;;16.43;3.77;;;;;;;17.16;89.19;99169.91;5088462;28;20292;-65
2022/08/19 13:53:17;;;;;;;16.33;4.43;;;;;;;17.44;89.38;99215.75;5131828;27;20351;-66
2022/08/19 13:56:10;;;;;;;17.70;4.60;;;;;;;17.46;89.18;99203.28;5119140;27;20062;-65
2022/08/19 13:59:00;;;;;;;13.97;5.00;;;;;;;17.42;89.27;99196.50;5150752;27;20288;-64
2022/08/19 14:01:43;;;;;;;16.45;4.35;;;;;;;17.43;89.23;99185.00;5151447;27;20415;-64
2022/08/19 14:04:37;;;;;;;10.63;3.87;;;;;;;17.46;89.40;99175.09;5133645;27;20042;-64
2022/08/19 14:07:17;;;;;;;10.32;4.07;;;;;;;17.45;89.30;99167.28;5150288;27;20312;-64
2022/08/19 14:10:03;;;;;;;11.37;4.13;;;;;;;17.46;89.35;99168.97;5152413;27;20332;-64
2022/08/19 14:12:48;;;;;;;16.05;4.85;;;;;;;17.27;89.24;99136.72;5151360;27;20471;-65
2022/08/19 14:15:26;;;;;;;9.17;4.40;;;;;;;17.32;89.65;99161.03;5124766;27;20119;-66
2022/08/19 14:18:31;;;;;;;13.13;4.77;;;;;;;17.36;89.57;99173.13;5151988;27;20298;-65
2022/08/19 14:21:20;;;;;;;10.27;4.97;;;;;;;17.33;89.79;99162.75;5150846;27;20292;-65
2022/08/19 14:24:26;;;;;;;9.83;3.50;;;;;;;17.33;89.83;99157.47;5151306;27;20603;-65
2022/08/19 14:30:49;;;;;;;15.60;4.20;;;;;;;17.21;89.46;99132.66;5044414;27;20696;-66
2022/08/19 14:33:52;;;;;;;10.37;5.13;;;;;;;17.35;89.33;99161.72;5099452;27;20348;-64
2022/08/19 14:36:35;;;;;;;13.77;5.37;;;;;;;17.31;89.57;99164.63;5117977;27;20423;-64
2022/08/19 14:39:14;;;;;;;11.73;4.83;;;;;;;17.30;89.79;99160.28;5155629;27;20284;-63
2022/08/19 14:42:01;;;;;;;;;;;;;;;17.30;89.89;99165.56;5154996;27;20289;-64
2022/08/19 14:44:44;;;;;;;15.90;5.20;;;;;;;17.28;89.94;99175.41;5154843;27;19934;-65
2022/08/19 14:47:24;;;;;;;17.60;5.13;;;;;;;17.28;90.02;99170.13;5153908;27;20627;-64
2022/08/19 14:49:57;;;;;;;15.20;5.17;;;;;;;17.23;90.05;99170.38;5155714;27;20312;-64
2022/08/19 14:52:40;;;;;;;11.67;4.93;;;;;;;17.22;90.04;99153.72;5070176;27;20280;-64
2022/08/19 14:55:16;;;;;;;15.27;5.27;;;;;;;17.16;90.33;99155.88;5112488;27;20626;-65
2022/08/19 14:58:10;;;;;;;13.50;4.47;;;;;;;17.14;90.63;99142.75;5155516;27;20309;-64
2022/08/19 15:15:31;;;;;;;11.50;3.70;;;;;;;17.21;90.35;99133.50;5050790;28;20377;-65
2022/08/19 15:18:27;;;;;;;8.77;4.27;;;;;;;17.24;89.99;99127.19;5034894;28;20287;-64
2022/08/19 15:24:03;;;;;;;14.10;4.07;;;;;;;17.16;89.69;99098.63;5048709;28;20108;-64
2022/08/19 15:26:45;;;;;;;14.57;3.20;;;;;;;17.13;89.27;99098.84;5050545;28;20563;-64
2022/08/19 15:29:27;;;;;;;9.90;3.65;;;;;;;17.14;89.16;99100.50;5017480;28;20299;-64
2022/08/19 15:32:09;;;;;;;11.43;3.67;;;;;;;17.18;88.86;99083.56;5048507;28;20075;-65
2022/08/19 15:34:50;;;;;;;6.37;3.00;;;;;;;17.18;88.57;99080.91;5050113;28;20330;-65
2022/08/19 15:37:36;;;;;;;11.07;3.10;;;;;;;17.09;88.58;99060.38;5051025;28;20293;-64
2022/08/19 15:40:16;;;;;;;11.03;2.97;;;;;;;17.26;88.27;99088.34;5051207;28;20616;-63
2022/08/19 15:43:26;;;;;;;9.30;2.77;;;;;;;17.30;88.25;99067.88;5020273;28;20315;-66
2022/08/19 15:46:10;;;;;;;15.73;2.80;;;;;;;17.30;88.33;99063.47;5034005;28;20291;-65
2022/08/19 15:48:56;;;;;;;6.97;2.78;;;;;;;17.35;87.63;99076.38;5069190;27;20359;-64
2022/08/19 15:54:40;;;;;;;8.00;2.30;;;;;;;17.29;87.44;99060.91;5145791;27;20601;-64
2022/08/19 16:06:52;;;;;;;8.87;3.00;;;;;;;17.29;87.75;99050.34;5120173;27;20300;-66
2022/08/19 16:09:41;;;;;;;8.07;3.20;;;;;;;17.30;87.73;99057.31;5144742;27;20348;-65
2022/08/19 16:12:23;;;;;;;8.33;3.00;;;;;;;17.28;87.68;99048.69;5145244;27;20288;-65
2022/08/19 16:15:23;;;;;;;8.33;2.93;;;;;;;17.24;87.76;99035.66;5065553;27;20565;-64
2022/08/19 16:18:16;;;;;;;10.50;3.10;;;;;;;17.20;87.61;99036.81;5144754;27;20322;-64
2022/08/19 16:27:15;;;;;;;9.27;2.70;;;;;;;17.01;88.15;98991.41;5145297;27;20311;-64
2022/08/19 16:30:10;;;;;;;5.73;2.70;;;;;;;17.10;88.38;99011.94;5145626;27;20288;-64
2022/08/19 16:33:13;;;;;;;7.53;2.97;;;;;;;17.10;88.39;99011.94;5109630;27;20291;-65
2022/08/19 16:36:11;;;;;;;4.97;2.43;;;;;;;16.98;88.38;99000.34;5145405;27;20308;-64
2022/08/19 16:39:07;;;;;;;5.77;2.33;;;;;;;17.07;87.93;99020.03;5144823;27;20299;-64
2022/08/19 16:41:44;;;;;;;;;;;;;;;17.06;87.13;99028.91;5145784;27;20355;-64
2022/08/19 16:44:26;;;;;;;7.45;2.53;;;;;;;17.04;87.18;99025.50;5145332;27;19930;-65
2022/08/19 16:47:06;;;;;;;8.63;2.58;;;;;;;17.10;86.95;99025.13;5121403;28;20077;-65
2022/08/19 16:49:56;;;;;;;6.57;2.47;;;;;;;17.14;87.05;99031.88;5062087;28;20051;-66
2022/08/19 16:52:58;;;;;;;4.43;2.20;;;;;;;17.11;87.27;99029.44;5124763;28;20315;-64
2022/08/19 16:55:37;;;;;;;5.63;2.30;;;;;;;17.06;87.21;99023.63;5121961;27;20345;-64